sensor_id;sensor_type;location;lat;lon;timestamp;pressure;altitude;pressure_sealevel;temperature;humidity
15558;BME280;7880;50.110;9.372;2023-06-22T00:00:54;18.97395751029835;;;18.562;100.0
15558;BME280;7880;50.110;9.372;2023-06-22T00:05:59;18.979000300262122;;;18.687;100.0
15558;BME280;7880;50.110;9.372;2023-06-22T00:11:04;18.631048475537682;;;18.5;100.0
15558;BME280;7880;50.110;9.372;2023-06-22T00:16:09;18.348653810337417;;;18.187;100.0
15558;BME280;7880;50.110;9.372;2023-06-22T00:21:13;18.696604510489852;;;18.375;100.0
15558;BME280;7880;50.110;9.372;2023-06-22T00:26:22;18.958829142153263;;;18.562;100.0
15558;BME280;7880;50.110;9.372;2023-06-22T00:31:23;19.039513802528383;;;18.687;100.0
15558;BME280;7880;50.110;9.372;2023-06-22T00:36:36;19.412681325920857;;;19.062;100.0
15558;BME280;7880;50.110;9.372;2023-06-22T00:41:29;19.806021792069078;;;19.437;100.0
15558;BME280;7880;50.110;9.372;2023-06-22T00:46:34;19.942178519821027;;;19.687;100.0
15558;BME280;7880;50.110;9.372;2023-06-22T00:51:40;19.730379257217283;;;19.562;100.0
15558;BME280;7880;50.110;9.372;2023-06-22T00:56:46;19.846364504098894;;;19.625;100.0
15558;BME280;7880;50.110;9.372;2023-06-22T01:01:49;19.523623329401016;;;19.437;100.0
15558;BME280;7880;50.110;9.372;2023-06-22T01:06:59;19.49840922533185;;;19.312;100.0
15558;BME280;7880;50.110;9.372;2023-06-22T01:12:02;19.24626858481788;;;19.125;100.0
15558;BME280;7880;50.110;9.372;2023-06-22T01:17:06;19.427809772646288;;;19.125;100.0
15558;BME280;7880;50.110;9.372;2023-06-22T01:22:16;19.57909438396455;;;19.312;100.0
15558;BME280;7880;50.110;9.372;2023-06-22T01:27:31;19.6496939588862;;;19.437;100.0
15558;BME280;7880;50.110;9.372;2023-06-22T01:32:20;19.195840544026577;;;19.0;100.0
15558;BME280;7880;50.110;9.372;2023-06-22T01:37:26;19.331996320956385;;;19.125;100.0
15558;BME280;7880;50.110;9.372;2023-06-22T01:42:31;19.639608301833505;;;19.375;100.0
15558;BME280;7880;50.110;9.372;2023-06-22T01:47:35;19.821150306897472;;;19.625;100.0
15558;BME280;7880;50.110;9.372;2023-06-22T01:52:39;19.967392751947045;;;19.812;100.0
15558;BME280;7880;50.110;9.372;2023-06-22T01:57:51;20.04807834364474;;;19.875;100.0
15558;BME280;7880;50.110;9.372;2023-06-22T02:02:53;20.007735538482667;;;19.812;100.0
15558;BME280;7880;50.110;9.372;2023-06-22T02:07:59;19.730379257217283;;;19.625;100.0
15558;BME280;7880;50.110;9.372;2023-06-22T02:12:57;19.861493025912203;;;19.687;100.0
15558;BME280;7880;50.110;9.372;2023-06-22T02:18:03;19.846364504098894;;;19.75;100.0
15558;BME280;7880;50.110;9.372;2023-06-22T02:23:07;19.679950937029208;;;19.5;100.0
15558;BME280;7880;50.110;9.372;2023-06-22T02:27:44;19.614394164294936;;;19.437;100.0
15558;BME280;7880;50.110;9.372;2023-06-22T02:32:48;19.720293590851362;;;19.5;100.0
15558;BME280;7880;50.110;9.372;2023-06-22T02:37:52;19.760636263299965;;;19.562;100.0
15558;BME280;7880;50.110;9.372;2023-06-22T02:42:55;19.755593428225257;;;19.562;100.0
15558;BME280;7880;50.110;9.372;2023-06-22T02:47:59;19.81106463005417;;;19.625;100.0
15558;BME280;7880;50.110;9.372;2023-06-22T02:53:12;19.770721934322502;;;19.562;100.0
15558;BME280;7880;50.110;9.372;2023-06-22T02:58:09;19.831235984904925;;;19.625;100.0
15558;BME280;7880;50.110;9.372;2023-06-22T03:03:14;19.821150306897472;;;19.687;100.0
15558;BME280;7880;50.110;9.372;2023-06-22T03:08:16;19.81106463005417;;;19.625;100.0
15558;BME280;7880;50.110;9.372;2023-06-22T03:13:21;19.86653586709872;;;19.687;100.0
15558;BME280;7880;50.110;9.372;2023-06-22T03:18:42;19.770721934322502;;;19.625;100.0
15558;BME280;7880;50.110;9.372;2023-06-22T03:23:41;19.700122261611977;;;19.5;100.0
15558;BME280;7880;50.110;9.372;2023-06-22T03:28:37;19.700122261611977;;;19.5;100.0
15558;BME280;7880;50.110;9.372;2023-06-22T03:33:40;19.690036598738516;;;19.5;100.0
15558;BME280;7880;50.110;9.372;2023-06-22T03:38:46;19.730379257217283;;;19.562;100.0
15558;BME280;7880;50.110;9.372;2023-06-22T03:43:50;19.720293590851362;;;19.562;100.0
15558;BME280;7880;50.110;9.372;2023-06-22T03:48:59;19.558923087321453;;;19.312;100.0
15558;BME280;7880;50.110;9.372;2023-06-22T03:53:57;19.599265685264253;;;19.312;100.0
15558;BME280;7880;50.110;9.372;2023-06-22T03:59:10;19.47823794731521;;;19.25;100.0
15558;BME280;7880;50.110;9.372;2023-06-22T04:04:05;19.33703913158388;;;19.125;100.0
15558;BME280;7880;50.110;9.372;2023-06-22T04:09:10;19.34208194250241;;;19.187;100.0
15558;BME280;7880;50.110;9.372;2023-06-22T04:14:14;19.362253189086914;;;19.187;100.0
15558;BME280;7880;50.110;9.372;2023-06-22T04:19:18;19.372338814125396;;;19.187;100.0
15558;BME280;7880;50.110;9.372;2023-06-22T04:24:22;19.47823794731521;;;19.312;100.0
15558;BME280;7880;50.110;9.372;2023-06-22T04:29:34;19.513537686900236;;;19.312;100.0
15558;BME280;7880;50.110;9.372;2023-06-22T04:34:32;19.599265685264253;;;19.437;100.0
15558;BME280;7880;50.110;9.372;2023-06-22T04:39:36;19.669865276484053;;;19.5;100.0
15558;BME280;7880;50.110;9.372;2023-06-22T04:44:40;19.614394164294936;;;19.437;100.0
15558;BME280;7880;50.110;9.372;2023-06-22T04:49:44;19.669865276484053;;;19.5;100.0
15558;BME280;7880;50.110;9.372;2023-06-22T04:54:58;19.745507758948953;;;19.5;100.0
15558;BME280;7880;50.110;9.372;2023-06-22T04:59:56;19.720293590851362;;;19.562;100.0
15558;BME280;7880;50.110;9.372;2023-06-22T05:04:58;19.78080760650919;;;19.562;100.0
15558;BME280;7880;50.110;9.372;2023-06-22T05:10:03;20.07329260632978;;;19.812;100.0
15558;BME280;7880;50.110;9.372;2023-06-22T05:15:08;20.159021153883078;;;19.937;100.0
15558;BME280;7880;50.110;9.372;2023-06-22T05:20:22;20.244749785546446;;;20.062;100.0
15558;BME280;7880;50.110;9.372;2023-06-22T05:25:17;20.496893307339633;;;20.25;100.0
15558;BME280;7880;50.110;9.372;2023-06-22T05:30:28;20.628008226217936;;;20.437;100.0
15558;BME280;7880;50.110;9.372;2023-06-22T05:35:35;20.64817976966151;;;20.5;100.0
15558;BME280;7880;50.110;9.372;2023-06-22T05:40:41;20.638093997357647;;;20.5;100.0
15558;BME280;7880;50.110;9.372;2023-06-22T05:45:38;20.7893807041517;;;20.562;100.0
15558;BME280;7880;50.110;9.372;2023-06-22T05:50:53;20.859981256962055;;;20.687;100.0
15558;BME280;7880;50.110;9.372;2023-06-22T05:55:52;21.021354163304203;;;20.875;100.0
15558;BME280;7880;50.110;9.372;2023-06-22T06:00:57;21.09195490354323;;;20.937;100.0
15558;BME280;7880;50.110;9.372;2023-06-22T06:06:04;21.228113635093905;;;21.062;100.0
15558;BME280;7880;50.110;9.372;2023-06-22T06:11:06;21.470174126164057;;;21.312;100.0
15558;BME280;7880;50.110;9.372;2023-06-22T06:16:13;21.63659110274748;;;21.5;100.0
15558;BME280;7880;50.110;9.372;2023-06-22T06:21:15;21.81309430303518;;;21.625;100.0
15558;BME280;7880;50.110;9.372;2023-06-22T06:26:30;22.080371256457873;;;21.937;100.0
15558;BME280;7880;50.110;9.372;2023-06-22T06:31:24;22.292176215263318;;;22.125;100.0
15558;BME280;7880;50.110;9.372;2023-06-22T06:36:28;22.34260604302981;;;22.25;100.0
15558;BME280;7880;50.110;9.372;2023-06-22T06:41:31;22.584669621434294;;;22.375;100.0
15558;BME280;7880;50.110;9.372;2023-06-22T06:46:35;22.725873685168335;;;22.562;100.0
15558;BME280;7880;50.110;9.372;2023-06-22T06:51:38;22.867077977076406;;;22.75;100.0
15558;BME280;7880;50.110;9.372;2023-06-22T06:56:48;23.04862668766291;;;22.937;100.0
15558;BME280;7880;50.110;9.372;2023-06-22T07:01:49;23.250347919581692;;;23.125;100.0
15558;BME280;7880;50.110;9.372;2023-06-22T07:06:53;23.467198763252235;;;23.312;100.0
15558;BME280;7880;50.110;9.372;2023-06-22T07:11:57;23.542844532994785;;;23.437;100.0
15558;BME280;7880;50.110;9.372;2023-06-22T07:17:11;23.769782235124147;;;23.625;100.0
15558;BME280;7880;50.110;9.372;2023-06-22T07:22:05;23.991677447059192;;;23.812;100.0
15558;BME280;7880;50.110;9.372;2023-06-22T07:27:11;24.082452923431994;;;23.937;100.0
15558;BME280;7880;50.110;9.372;2023-06-22T07:32:06;24.233745593600908;;;24.125;100.0
15558;BME280;7880;50.110;9.372;2023-06-22T07:37:08;24.50102995103807;;;24.375;100.0
15558;BME280;7880;50.110;9.372;2023-06-22T07:42:12;24.601892185170435;;;24.5;100.0
15558;BME280;7880;50.110;9.372;2023-06-22T07:47:18;24.64223711141967;;;24.562;100.0
15558;BME280;7880;50.110;9.372;2023-06-22T07:52:23;24.586762842629106;;;24.562;100.0
15558;BME280;7880;50.110;9.372;2023-06-22T07:57:32;24.6472802285105;;;24.625;100.0
15558;BME280;7880;50.110;9.372;2023-06-22T08:02:31;24.843962022062623;;;24.687;100.0
15558;BME280;7880;50.110;9.372;2023-06-22T08:07:38;24.83387576547102;;;24.75;100.0
15558;BME280;7880;50.110;9.372;2023-06-22T08:12:40;24.88430706007057;;;24.812;100.0
15558;BME280;7880;50.110;9.372;2023-06-22T08:17:45;25.171765995025634;;;25.0;100.0
15558;BME280;7880;50.110;9.372;2023-06-22T08:22:50;24.959954056539573;;;24.937;100.0
15558;BME280;7880;50.110;9.372;2023-06-22T08:27:58;25.075946244975786;;;24.937;100.0
15558;BME280;7880;50.110;9.372;2023-06-22T08:33:00;25.262542697251774;;;25.062;100.0
15558;BME280;7880;50.110;9.372;2023-06-22T08:38:04;25.297844773583346;;;25.125;100.0
15558;BME280;7880;50.110;9.372;2023-06-22T08:43:08;25.398707927396753;;;25.187;100.0
15558;BME280;7880;50.110;9.372;2023-06-22T08:48:12;25.464269039803185;;;25.312;100.0
15558;BME280;7880;50.110;9.372;2023-06-22T08:53:18;25.54495970720891;;;25.437;100.0
15558;BME280;7880;50.110;9.372;2023-06-22T08:58:24;25.655909496545792;;;25.5;100.0
15558;BME280;7880;50.110;9.372;2023-06-22T09:03:26;25.72651398128364;;;25.562;100.0
15558;BME280;7880;50.110;9.372;2023-06-22T09:08:32;25.92319820384146;;;25.812;100.0
15558;BME280;7880;50.110;9.372;2023-06-22T09:13:35;26.1350124770368;;;25.937;100.0
15558;BME280;7880;50.110;9.372;2023-06-22T09:18:42;26.245963015506277;;;26.125;100.0
15558;BME280;7880;50.110;9.372;2023-06-22T09:23:59;26.523339977953583;;;26.312;100.0
15558;BME280;7880;50.110;9.372;2023-06-22T09:28:50;26.50316707827151;;;26.312;100.0
15558;BME280;7880;50.110;9.372;2023-06-22T09:33:54;26.649420706467936;;;26.437;100.0
15558;BME280;7880;50.110;9.372;2023-06-22T09:39:02;26.770458376972236;;;26.625;100.0
15558;BME280;7880;50.110;9.372;2023-06-22T09:44:04;26.790631338354434;;;26.625;100.0
15558;BME280;7880;50.110;9.372;2023-06-22T09:49:08;26.992361208290095;;;26.812;100.0
15558;BME280;7880;50.110;9.372;2023-06-22T09:54:12;26.820890789158874;;;26.687;100.0
15558;BME280;7880;50.110;9.372;2023-06-22T09:59:27;27.163831963861593;;;27.0;100.0
15558;BME280;7880;50.110;9.372;2023-06-22T10:04:22;27.178961752564646;;;27.0;99.76227599039042
15558;BME280;7880;50.110;9.372;2023-06-22T10:09:28;27.506774484325433;;;27.25;100.0
15558;BME280;7880;50.110;9.372;2023-06-22T10:14:33;27.25461073537008;;;27.25;94.16597349923588
15558;BME280;7880;50.110;9.372;2023-06-22T10:19:38;27.2697405397892;;;27.062;97.50689398551498
15558;BME280;7880;50.110;9.372;2023-06-22T10:24:44;27.33025978365913;;;27.125;100.0
15558;BME280;7880;50.110;9.372;2023-06-22T10:29:46;27.819458543515065;;;27.625;99.73953920649203
15558;BME280;7880;50.110;9.372;2023-06-22T10:35:01;27.945541141950525;;;27.812;97.47453652392653
15558;BME280;7880;50.110;9.372;2023-06-22T10:39:56;28.086753868148662;;;27.937;92.84118242514771
15558;BME280;7880;50.110;9.372;2023-06-22T10:45:01;28.24309679545113;;;28.062;96.07131060354699
15558;BME280;7880;50.110;9.372;2023-06-22T10:50:13;28.27335674916976;;;28.187;92.26956304709509
15558;BME280;7880;50.110;9.372;2023-06-22T10:55:12;28.23301014653989;;;28.187;95.90138122360906
15558;BME280;7880;50.110;9.372;2023-06-22T11:00:15;28.354050010308857;;;28.125;90.8457797304654
15558;BME280;7880;50.110;9.372;2023-06-22T11:05:18;28.308660041750407;;;28.187;87.99985075228699
15558;BME280;7880;50.110;9.372;2023-06-22T11:10:22;28.918904924445087;;;28.562;89.4744371765754
15558;BME280;7880;50.110;9.372;2023-06-22T11:15:32;28.858384580450366;;;28.75;89.46774589669279
15558;BME280;7880;50.110;9.372;2023-06-22T11:20:35;28.28344340273761;;;28.312;86.28942276681435
15558;BME280;7880;50.110;9.372;2023-06-22T11:25:38;28.480133379995824;;;28.25;90.73473449306735
15558;BME280;7880;50.110;9.372;2023-06-22T11:30:43;28.671780450292864;;;28.437;92.68144824913078
15558;BME280;7880;50.110;9.372;2023-06-22T11:35:47;28.122057085350388;;;28.0;93.17202444702838
15558;BME280;7880;50.110;9.372;2023-06-22T11:40:54;28.37422333723516;;;28.187;90.73360535851981
15558;BME280;7880;50.110;9.372;2023-06-22T11:46:00;28.586043551104375;;;28.437;94.64930212305755
15558;BME280;7880;50.110;9.372;2023-06-22T11:51:08;28.071623922284925;;;28.0;94.03685814413947
15558;BME280;7880;50.110;9.372;2023-06-22T11:56:11;28.13214372145594;;;28.0;97.47678840235598
15558;BME280;7880;50.110;9.372;2023-06-22T12:01:15;28.354050010308857;;;28.125;95.44843480132654
15558;BME280;7880;50.110;9.372;2023-06-22T12:06:23;28.212836852209875;;;28.062;94.9846962279889
15558;BME280;7880;50.110;9.372;2023-06-22T12:11:27;28.727257312234723;;;28.437;93.76733781576316
15558;BME280;7880;50.110;9.372;2023-06-22T12:16:32;28.263270096766064;;;28.187;95.61676336102155
15558;BME280;7880;50.110;9.372;2023-06-22T12:21:39;28.343963348591934;;;28.187;93.12219713014852
15558;BME280;7880;50.110;9.372;2023-06-22T12:26:43;28.480133379995824;;;28.25;94.41307851935362
15558;BME280;7880;50.110;9.372;2023-06-22T12:32:06;28.596130240760978;;;28.437;88.81123911041905
15558;BME280;7880;50.110;9.372;2023-06-22T12:36:13;28.570913518802264;;;28.437;91.49754245907292
15558;BME280;7880;50.110;9.372;2023-06-22T12:41:19;28.470046703726986;;;28.375;94.02514537386304
15558;BME280;7880;50.110;9.372;2023-06-22T12:46:22;28.949165112158518;;;28.625;91.99396742772498
15558;BME280;7880;50.110;9.372;2023-06-22T12:51:27;29.735933670267695;;;29.437;90.64742885957483
15558;BME280;7880;50.110;9.372;2023-06-22T12:56:31;29.74097708130721;;;29.625;90.83389786221107
15558;BME280;7880;50.110;9.372;2023-06-22T13:01:44;29.962887455173767;;;29.812;85.20893904113834
15558;BME280;7880;50.110;9.372;2023-06-22T13:06:43;29.645152321323984;;;29.562;84.42670247768295
15558;BME280;7880;50.110;9.372;2023-06-22T13:11:45;29.579588072397748;;;29.5;84.98420040541284
15558;BME280;7880;50.110;9.372;2023-06-22T13:16:49;29.085336086526514;;;29.125;82.5764581955603
15558;BME280;7880;50.110;9.372;2023-06-22T13:21:53;29.024815627280624;;;28.937;83.55011093961762
15558;BME280;7880;50.110;9.372;2023-06-22T13:26:58;29.050032480206575;;;28.875;85.25366146680209
15558;BME280;7880;50.110;9.372;2023-06-22T13:32:03;28.939078381756552;;;28.75;87.99666252525512
15558;BME280;7880;50.110;9.372;2023-06-22T13:37:07;28.893688109354116;;;28.75;86.62602338536915
15558;BME280;7880;50.110;9.372;2023-06-22T13:42:13;28.949165112158518;;;28.75;85.4347917483348
15558;BME280;7880;50.110;9.372;2023-06-22T13:47:18;29.246724182739854;;;29.0;84.17924784433879
15558;BME280;7880;50.110;9.372;2023-06-22T13:52:21;29.140813210984923;;;29.0;85.16439964310976
15558;BME280;7880;50.110;9.372;2023-06-22T13:57:25;29.110552956914763;;;28.875;83.7007372739525
15558;BME280;7880;50.110;9.372;2023-06-22T14:02:29;29.30220140964375;;;29.062;85.19163696722981
15558;BME280;7880;50.110;9.372;2023-06-22T14:07:38;29.619935296685433;;;29.375;85.12513795613226
15558;BME280;7880;50.110;9.372;2023-06-22T14:12:40;29.87210587048903;;;29.625;87.61490413175939
15558;BME280;7880;50.110;9.372;2023-06-22T14:17:51;29.897322967887156;;;29.75;83.76661160331933
15558;BME280;7880;50.110;9.372;2023-06-22T14:22:50;30.189841829432407;;;30.0;83.65799470658344
15558;BME280;7880;50.110;9.372;2023-06-22T14:28:03;30.119233738729964;;;30.0;80.1889650511488
15558;BME280;7880;50.110;9.372;2023-06-22T14:32:59;30.134364039078356;;;30.062;81.22224966948457
15558;BME280;7880;50.110;9.372;2023-06-22T14:38:02;30.189841829432407;;;30.062;81.3096723883302
15558;BME280;7880;50.110;9.372;2023-06-22T14:43:07;30.2150590185076;;;30.125;79.73079230121904
15558;BME280;7880;50.110;9.372;2023-06-22T14:48:12;30.2150590185076;;;30.187;78.45650363459592
15558;BME280;7880;50.110;9.372;2023-06-22T14:53:17;30.55801351228729;;;30.437;80.0413841387111
15558;BME280;7880;50.110;9.372;2023-06-22T14:58:20;30.366362305753864;;;30.312;79.1343537065761
15558;BME280;7880;50.110;9.372;2023-06-22T15:03:40;30.431927144905785;;;30.312;76.96326160979213
15558;BME280;7880;50.110;9.372;2023-06-22T15:08:31;30.265493418485857;;;30.125;78.37291569207417
15558;BME280;7880;50.110;9.372;2023-06-22T15:13:39;30.442014047602424;;;30.312;75.31401864114669
15558;BME280;7880;50.110;9.372;2023-06-22T15:18:41;30.250363095436477;;;30.25;72.57566982688148
15558;BME280;7880;50.110;9.372;2023-06-22T15:23:46;30.32601473687682;;;30.25;73.95706512941942
15558;BME280;7880;50.110;9.372;2023-06-22T15:28:52;30.018365136679495;;;30.0;74.55502622952314
15558;BME280;7880;50.110;9.372;2023-06-22T15:33:57;29.786367793759563;;;29.75;75.22388133337643
15558;BME280;7880;50.110;9.372;2023-06-22T15:39:01;29.826715113507817;;;29.687;75.22156877465616
15558;BME280;7880;50.110;9.372;2023-06-22T15:44:03;29.700629801140167;;;29.625;74.4040932944786
15558;BME280;7880;50.110;9.372;2023-06-22T15:49:08;29.458546511293388;;;29.375;80.70525569891988
15558;BME280;7880;50.110;9.372;2023-06-22T15:54:12;29.241680800222092;;;29.187;80.9977425050743
15558;BME280;7880;50.110;9.372;2023-06-22T15:59:30;28.974381943256596;;;28.937;82.62059266964498
15558;BME280;7880;50.110;9.372;2023-06-22T16:04:25;28.727257312234723;;;28.687;86.16072152385681
15558;BME280;7880;50.110;9.372;2023-06-22T16:09:29;28.570913518802264;;;28.437;86.15546930134536
15558;BME280;7880;50.110;9.372;2023-06-22T16:14:35;28.384310002444543;;;28.25;94.6954524446061
15558;BME280;7880;50.110;9.372;2023-06-22T16:19:37;28.207793529354966;;;28.125;97.30705148010239
15558;BME280;7880;50.110;9.372;2023-06-22T16:24:42;28.106927133374846;;;27.937;96.15213581104163
15558;BME280;7880;50.110;9.372;2023-06-22T16:29:49;28.0766672372818;;;27.875;94.39118690430874
15558;BME280;7880;50.110;9.372;2023-06-22T16:34:53;27.96067106598639;;;27.812;97.20471947405052
15558;BME280;7880;50.110;9.372;2023-06-22T16:39:58;27.864848257997075;;;27.687;97.75213853284454
15558;BME280;7880;50.110;9.372;2023-06-22T16:45:06;27.708506007358665;;;27.625;100.0
15558;BME280;7880;50.110;9.372;2023-06-22T16:50:08;27.567293892340967;;;27.5;97.68106446420343
15558;BME280;7880;50.110;9.372;2023-06-22T16:55:13;27.51686104941764;;;27.375;97.26188315732617
15558;BME280;7880;50.110;9.372;2023-06-22T17:00:24;27.552164036408065;;;27.437;94.47941844567517
15558;BME280;7880;50.110;9.372;2023-06-22T17:05:28;27.5219043324003;;;27.375;91.2840192148789
15558;BME280;7880;50.110;9.372;2023-06-22T17:10:27;27.47147151567042;;;27.312;87.50660383221124
15558;BME280;7880;50.110;9.372;2023-06-22T17:15:36;27.46642823559814;;;27.312;84.93481520392729
15558;BME280;7880;50.110;9.372;2023-06-22T17:20:37;27.506774484325433;;;27.375;81.46535217378035
15558;BME280;7880;50.110;9.372;2023-06-22T17:25:46;27.325216511735924;;;27.187;82.05905929394717
15558;BME280;7880;50.110;9.372;2023-06-22T17:31:08;27.21426460305811;;;27.125;83.05683072886275
15558;BME280;7880;50.110;9.372;2023-06-22T17:36:02;27.052880260074744;;;26.937;82.20747558464171
15558;BME280;7880;50.110;9.372;2023-06-22T17:40:25;26.56872901926399;;;26.562;87.32820496671764
15558;BME280;7880;50.110;9.372;2023-06-22T17:45:29;26.367000127217032;;;26.187;91.41637285821822
15558;BME280;7880;50.110;9.372;2023-06-22T17:50:38;26.2711790666217;;;26.125;93.04303626709883
15558;BME280;7880;50.110;9.372;2023-06-22T17:55:39;26.15014208762441;;;26.0;95.96509043801093
15558;BME280;7880;50.110;9.372;2023-06-22T18:00:47;25.8021617068036;;;25.625;97.54949991245726
15558;BME280;7880;50.110;9.372;2023-06-22T18:05:48;25.620607275568183;;;25.437;100.0
15558;BME280;7880;50.110;9.372;2023-06-22T18:10:56;25.47939853426651;;;25.312;100.0
15558;BME280;7880;50.110;9.372;2023-06-22T18:16:13;25.368448969029124;;;25.187;100.0
15558;BME280;7880;50.110;9.372;2023-06-22T18:21:06;25.403751088143327;;;25.187;100.0
15558;BME280;7880;50.110;9.372;2023-06-22T18:26:21;25.388621606776724;;;25.125;100.0
15558;BME280;7880;50.110;9.372;2023-06-22T18:31:17;25.318017395032804;;;25.062;100.0
15558;BME280;7880;50.110;9.372;2023-06-22T18:36:24;25.141507115238348;;;25.0;100.0
15558;BME280;7880;50.110;9.372;2023-06-22T18:41:34;25.378535287320847;;;25.125;100.0
15558;BME280;7880;50.110;9.372;2023-06-22T18:46:34;25.12637767927372;;;24.937;100.0
15558;BME280;7880;50.110;9.372;2023-06-22T18:51:55;25.111248245928437;;;24.937;100.0
15558;BME280;7880;50.110;9.372;2023-06-22T18:56:51;25.257499544654273;;;25.0;100.0
15558;BME280;7880;50.110;9.372;2023-06-22T19:01:47;25.176809142675484;;;24.875;100.0
15558;BME280;7880;50.110;9.372;2023-06-22T19:06:55;25.0709031031467;;;24.812;100.0
15558;BME280;7880;50.110;9.372;2023-06-22T19:12:28;25.035601118492195;;;24.812;100.0
15558;BME280;7880;50.110;9.372;2023-06-22T19:17:12;24.95491092140437;;;24.812;100.0
15558;BME280;7880;50.110;9.372;2023-06-22T19:22:16;24.934738383773947;;;24.75;100.0
15558;BME280;7880;50.110;9.372;2023-06-22T19:27:21;24.77335825036862;;;24.625;100.0
15558;BME280;7880;50.110;9.372;2023-06-22T19:32:33;24.692668295424664;;;24.5;100.0
15558;BME280;7880;50.110;9.372;2023-06-22T19:37:32;24.697711415425875;;;24.5;98.27401816436
15558;BME280;7880;50.110;9.372;2023-06-22T19:42:37;24.611978414986517;;;24.5;96.11002021212397
15558;BME280;7880;50.110;9.372;2023-06-22T19:47:42;24.536331719742158;;;24.375;97.07686373157348
15558;BME280;7880;50.110;9.372;2023-06-22T19:52:46;24.490943734027677;;;24.375;94.72922575244272
15558;BME280;7880;50.110;9.372;2023-06-22T19:57:53;24.54137483072118;;;24.312;92.1919881651789
15558;BME280;7880;50.110;9.372;2023-06-22T20:02:55;24.410254039854046;;;24.25;94.4115215510347
15558;BME280;7880;50.110;9.372;2023-06-22T20:08:02;24.50102995103807;;;24.25;93.36457672147854
15558;BME280;7880;50.110;9.372;2023-06-22T20:13:09;24.410254039854046;;;24.25;96.16513251494318
15558;BME280;7880;50.110;9.372;2023-06-22T20:18:10;24.284176541864873;;;24.125;94.1044727941957
15558;BME280;7880;50.110;9.372;2023-06-22T20:23:18;24.359823018830504;;;24.187;92.63470930587596
15558;BME280;7880;50.110;9.372;2023-06-22T20:28:25;24.329564420186216;;;24.187;92.68505688880306
15558;BME280;7880;50.110;9.372;2023-06-22T20:33:22;24.309392026910793;;;24.187;91.77550999957869
15558;BME280;7880;50.110;9.372;2023-06-22T20:38:26;24.173228494101203;;;24.062;92.97923055714563
15558;BME280;7880;50.110;9.372;2023-06-22T20:43:30;24.193400855944493;;;24.062;93.82887643558716
15558;BME280;7880;50.110;9.372;2023-06-22T20:48:35;24.117754523042823;;;23.937;93.3070359718734
15558;BME280;7880;50.110;9.372;2023-06-22T20:53:54;24.082452923431994;;;23.875;95.1203442046926
15558;BME280;7880;50.110;9.372;2023-06-22T20:58:44;24.042108255624772;;;23.875;96.74849694128764
15558;BME280;7880;50.110;9.372;2023-06-22T21:03:49;23.905945139291;;;23.75;97.26952220925783
15558;BME280;7880;50.110;9.372;2023-06-22T21:08:54;23.739523840788753;;;23.625;100.0
15558;BME280;7880;50.110;9.372;2023-06-22T21:13:59;23.643705661181592;;;23.5;100.0
15558;BME280;7880;50.110;9.372;2023-06-22T21:19:06;23.522672321327263;;;23.375;100.0
15558;BME280;7880;50.110;9.372;2023-06-22T21:24:06;23.240261846926295;;;23.125;100.0
15558;BME280;7880;50.110;9.372;2023-06-22T21:29:10;23.09905695198686;;;22.937;100.0
15558;BME280;7880;50.110;9.372;2023-06-22T21:34:13;22.685529643675544;;;22.625;100.0
15558;BME280;7880;50.110;9.372;2023-06-22T21:39:17;22.443465785874288;;;22.312;100.0
15558;BME280;7880;50.110;9.372;2023-06-22T21:44:20;22.34260604302981;;;22.187;100.0
15558;BME280;7880;50.110;9.372;2023-06-22T21:49:26;22.23166046036058;;;22.062;100.0
15558;BME280;7880;50.110;9.372;2023-06-22T21:54:31;21.818137256853515;;;21.687;100.0
15558;BME280;7880;50.110;9.372;2023-06-22T21:59:36;21.616419331129872;;;21.437;100.0
15558;BME280;7880;50.110;9.372;2023-06-22T22:04:43;21.576075801864498;;;21.375;100.0
15558;BME280;7880;50.110;9.372;2023-06-22T22:09:45;21.268457003706136;;;21.187;100.0
15558;BME280;7880;50.110;9.372;2023-06-22T22:14:50;21.167598617100158;;;20.937;100.0
15558;BME280;7880;50.110;9.372;2023-06-22T22:19:53;21.1121265540889;;;20.937;100.0
15558;BME280;7880;50.110;9.372;2023-06-22T22:24:57;21.142384038638557;;;20.875;100.0
15558;BME280;7880;50.110;9.372;2023-06-22T22:30:09;21.102040728233987;;;20.937;100.0